Terminal Aerodrome Forecast
Issued by NWS

Home | Current Version | Previous Version | Text Only | Print | Product List | Glossary On
Versions: 1 2 3 4 5 6 7 8 9 10 11 12 13 14 15 16 17 18 19 20
000
FTUS43 KMPX 271100 RRA
TAFAXN
TAF
KAXN 271143Z 2712/2812 VRB03KT P6SM SKC
     FM271800 17007KT P6SM BKN150
     FM280000 15010KT P6SM OVC060
     FM280300 14012KT 4SM -SN SCT015 OVC035
      TEMPO 2803/2807 1SM -SN BKN015
     FM280800 14013KT 6SM -SN OVC050=

USA.gov is the U.S. government's official web portal to all federal, state and local government web resources and services.